Terminal Aerodrome Forecast
Issued by NWS Paducah, KY

Home | Current Version | Previous Version | Text Only | Print | Product List | Glossary On
Versions: 1 2 3 4 5 6 7 8 9 10 11 12 13 14
000
FTUS43 KPAH 181140
TAFEVV
TAF
KEVV 181140Z 1812/1912 09008KT P6SM SKC
     FM181500 19012G19KT P6SM SCT035
     FM181800 22016G28KT P6SM BKN035
     FM182100 27022G35KT P6SM SCT040
     FM190500 29014G21KT P6SM BKN035
     FM190800 30013G20KT P6SM BKN025=

USA.gov is the U.S. government's official web portal to all federal, state and local government web resources and services.